sensor_id;sensor_type;location;lat;lon;timestamp;pressure;altitude;pressure_sealevel;temperature;humidity
32492;BME280;20605;49.742;18.802;2022-12-07T00:01:36;97315.27;;;2.31;100.00
32492;BME280;20605;49.742;18.802;2022-12-07T00:04:05;97309.70;;;2.31;100.00
32492;BME280;20605;49.742;18.802;2022-12-07T00:06:38;97308.38;;;2.36;100.00
32492;BME280;20605;49.742;18.802;2022-12-07T00:09:12;97299.34;;;2.42;100.00
32492;BME280;20605;49.742;18.802;2022-12-07T00:11:40;97298.05;;;2.42;100.00
32492;BME280;20605;49.742;18.802;2022-12-07T00:14:13;97294.63;;;2.43;100.00
32492;BME280;20605;49.742;18.802;2022-12-07T00:16:38;97296.36;;;2.39;100.00
32492;BME280;20605;49.742;18.802;2022-12-07T00:19:06;97296.35;;;2.41;100.00
32492;BME280;20605;49.742;18.802;2022-12-07T00:21:34;97297.16;;;2.46;100.00
32492;BME280;20605;49.742;18.802;2022-12-07T00:24:03;97294.59;;;2.47;100.00
32492;BME280;20605;49.742;18.802;2022-12-07T00:26:33;97295.02;;;2.47;100.00
32492;BME280;20605;49.742;18.802;2022-12-07T00:29:09;97291.14;;;2.50;100.00
32492;BME280;20605;49.742;18.802;2022-12-07T00:31:35;97292.44;;;2.48;100.00
32492;BME280;20605;49.742;18.802;2022-12-07T00:34:14;97285.61;;;2.44;100.00
32492;BME280;20605;49.742;18.802;2022-12-07T00:36:38;97291.15;;;2.48;100.00
32492;BME280;20605;49.742;18.802;2022-12-07T00:39:05;97292.41;;;2.51;100.00
32492;BME280;20605;49.742;18.802;2022-12-07T00:41:32;97288.96;;;2.54;100.00
32492;BME280;20605;49.742;18.802;2022-12-07T00:43:59;97291.53;;;2.54;100.00
32492;BME280;20605;49.742;18.802;2022-12-07T00:46:26;97287.20;;;2.59;100.00
32492;BME280;20605;49.742;18.802;2022-12-07T00:48:53;97290.55;;;2.66;100.00
32492;BME280;20605;49.742;18.802;2022-12-07T00:51:23;97283.21;;;2.71;100.00
32492;BME280;20605;49.742;18.802;2022-12-07T00:53:51;97282.77;;;2.73;100.00
32492;BME280;20605;49.742;18.802;2022-12-07T00:56:26;97292.56;;;2.80;100.00
32492;BME280;20605;49.742;18.802;2022-12-07T00:58:56;97289.48;;;2.88;100.00
32492;BME280;20605;49.742;18.802;2022-12-07T01:01:25;97293.27;;;2.95;100.00
32492;BME280;20605;49.742;18.802;2022-12-07T01:03:53;97292.80;;;2.99;100.00
32492;BME280;20605;49.742;18.802;2022-12-07T01:06:22;97291.91;;;3.03;100.00
32492;BME280;20605;49.742;18.802;2022-12-07T01:08:50;97284.58;;;3.07;100.00
32492;BME280;20605;49.742;18.802;2022-12-07T01:11:20;97283.23;;;3.12;100.00
32492;BME280;20605;49.742;18.802;2022-12-07T01:13:53;97288.80;;;3.13;100.00
32492;BME280;20605;49.742;18.802;2022-12-07T01:16:22;97284.03;;;3.18;100.00
32492;BME280;20605;49.742;18.802;2022-12-07T01:18:51;97281.42;;;3.21;100.00
32492;BME280;20605;49.742;18.802;2022-12-07T01:21:29;97281.42;;;3.21;100.00
32492;BME280;20605;49.742;18.802;2022-12-07T01:23:54;97281.84;;;3.22;100.00
32492;BME280;20605;49.742;18.802;2022-12-07T01:26:23;97287.87;;;3.20;100.00
32492;BME280;20605;49.742;18.802;2022-12-07T01:28:50;97284.84;;;3.22;100.00
32492;BME280;20605;49.742;18.802;2022-12-07T01:31:20;97274.08;;;3.25;100.00
32492;BME280;20605;49.742;18.802;2022-12-07T01:33:51;97276.64;;;3.27;100.00
32492;BME280;20605;49.742;18.802;2022-12-07T01:36:22;97269.36;;;3.26;100.00
32492;BME280;20605;49.742;18.802;2022-12-07T01:38:59;97272.41;;;3.21;100.00
32492;BME280;20605;49.742;18.802;2022-12-07T01:41:30;97269.86;;;3.20;100.00
32492;BME280;20605;49.742;18.802;2022-12-07T01:46:56;97265.95;;;3.24;100.00
32492;BME280;20605;49.742;18.802;2022-12-07T01:49:42;97268.50;;;3.26;100.00
32492;BME280;20605;49.742;18.802;2022-12-07T01:52:23;97262.95;;;3.23;100.00
32492;BME280;20605;49.742;18.802;2022-12-07T01:54:57;97263.36;;;3.26;100.00
32492;BME280;20605;49.742;18.802;2022-12-07T01:57:31;97259.05;;;3.28;100.00
32492;BME280;20605;49.742;18.802;2022-12-07T02:00:00;97259.89;;;3.28;100.00
32492;BME280;20605;49.742;18.802;2022-12-07T02:02:32;97265.00;;;3.32;100.00
32492;BME280;20605;49.742;18.802;2022-12-07T02:05:03;97258.98;;;3.33;100.00
32492;BME280;20605;49.742;18.802;2022-12-07T02:07:31;97251.34;;;3.26;100.00
32492;BME280;20605;49.742;18.802;2022-12-07T02:10:17;97250.10;;;3.22;100.00
32492;BME280;20605;49.742;18.802;2022-12-07T02:12:49;97257.42;;;3.19;100.00
32492;BME280;20605;49.742;18.802;2022-12-07T02:15:18;97262.14;;;3.20;100.00
32492;BME280;20605;49.742;18.802;2022-12-07T02:17:55;97259.56;;;3.20;100.00
32492;BME280;20605;49.742;18.802;2022-12-07T02:30:07;97263.54;;;3.09;100.00
32492;BME280;20605;49.742;18.802;2022-12-07T02:35:33;97264.83;;;3.09;100.00
32492;BME280;20605;49.742;18.802;2022-12-07T02:38:16;97271.30;;;3.06;100.00
32492;BME280;20605;49.742;18.802;2022-12-07T02:43:33;97265.28;;;3.07;100.00
32492;BME280;20605;49.742;18.802;2022-12-07T02:46:06;97261.84;;;3.08;100.00
32492;BME280;20605;49.742;18.802;2022-12-07T02:48:37;97258.86;;;3.06;100.00
32492;BME280;20605;49.742;18.802;2022-12-07T02:51:05;97263.16;;;3.05;100.00
32492;BME280;20605;49.742;18.802;2022-12-07T02:53:40;97259.75;;;3.03;100.00
32492;BME280;20605;49.742;18.802;2022-12-07T02:56:33;97264.87;;;3.05;100.00
32492;BME280;20605;49.742;18.802;2022-12-07T03:02:59;97266.13;;;3.08;100.00
32492;BME280;20605;49.742;18.802;2022-12-07T03:14:06;97258.80;;;3.12;100.00
32492;BME280;20605;49.742;18.802;2022-12-07T03:16:49;97258.83;;;3.09;100.00
32492;BME280;20605;49.742;18.802;2022-12-07T03:19:19;97264.86;;;3.06;100.00
32492;BME280;20605;49.742;18.802;2022-12-07T03:21:57;97256.73;;;3.04;100.00
32492;BME280;20605;49.742;18.802;2022-12-07T03:24:29;97259.73;;;3.05;100.00
32492;BME280;20605;49.742;18.802;2022-12-07T03:26:56;97262.30;;;3.05;100.00
32492;BME280;20605;49.742;18.802;2022-12-07T03:29:28;97258.05;;;3.02;100.00
32492;BME280;20605;49.742;18.802;2022-12-07T03:32:05;97256.75;;;3.02;100.00
32492;BME280;20605;49.742;18.802;2022-12-07T03:34:38;97264.06;;;3.01;100.00
32492;BME280;20605;49.742;18.802;2022-12-07T03:37:22;97261.53;;;2.97;100.00
32492;BME280;20605;49.742;18.802;2022-12-07T03:40:27;97254.31;;;2.90;100.00
32492;BME280;20605;49.742;18.802;2022-12-07T03:42:46;97254.31;;;2.90;100.00
32492;BME280;20605;49.742;18.802;2022-12-07T03:45:13;97247.46;;;2.89;100.00
32492;BME280;20605;49.742;18.802;2022-12-07T03:47:46;97253.03;;;2.90;100.00
32492;BME280;20605;49.742;18.802;2022-12-07T03:50:39;97250.39;;;2.96;100.00
32492;BME280;20605;49.742;18.802;2022-12-07T03:53:18;97250.83;;;2.95;100.00
32492;BME280;20605;49.742;18.802;2022-12-07T03:55:52;97248.25;;;2.95;100.00
32492;BME280;20605;49.742;18.802;2022-12-07T03:58:21;97249.97;;;2.95;100.00
32492;BME280;20605;49.742;18.802;2022-12-07T04:00:49;97246.14;;;2.92;100.00
32492;BME280;20605;49.742;18.802;2022-12-07T04:03:16;97252.99;;;2.93;100.00
32492;BME280;20605;49.742;18.802;2022-12-07T04:05:44;97252.11;;;2.95;100.00
32492;BME280;20605;49.742;18.802;2022-12-07T04:08:11;97252.52;;;2.98;100.00
32492;BME280;20605;49.742;18.802;2022-12-07T04:10:37;97248.20;;;3.00;100.00
32492;BME280;20605;49.742;18.802;2022-12-07T04:13:04;97250.81;;;2.97;100.00
32492;BME280;20605;49.742;18.802;2022-12-07T04:15:31;97252.08;;;2.99;100.00
32492;BME280;20605;49.742;18.802;2022-12-07T04:17:58;97245.63;;;3.00;100.00
32492;BME280;20605;49.742;18.802;2022-12-07T04:20:24;97249.47;;;3.02;100.00
32492;BME280;20605;49.742;18.802;2022-12-07T04:22:51;97251.17;;;3.03;100.00
32492;BME280;20605;49.742;18.802;2022-12-07T04:25:17;97257.22;;;2.99;100.00
32492;BME280;20605;49.742;18.802;2022-12-07T04:27:45;97253.45;;;2.91;100.00
32492;BME280;20605;49.742;18.802;2022-12-07T04:30:11;97255.15;;;2.92;100.00
32492;BME280;20605;49.742;18.802;2022-12-07T04:32:38;97252.95;;;2.98;100.00
32492;BME280;20605;49.742;18.802;2022-12-07T04:35:05;97252.91;;;3.01;100.00
32492;BME280;20605;49.742;18.802;2022-12-07T04:37:32;97259.41;;;2.94;100.00
32492;BME280;20605;49.742;18.802;2022-12-07T04:39:59;97255.59;;;2.90;100.00
32492;BME280;20605;49.742;18.802;2022-12-07T04:42:25;97256.48;;;2.87;100.00
32492;BME280;20605;49.742;18.802;2022-12-07T04:44:52;97255.64;;;2.85;100.00
32492;BME280;20605;49.742;18.802;2022-12-07T04:47:19;97260.37;;;2.84;100.00
32492;BME280;20605;49.742;18.802;2022-12-07T04:49:46;97256.56;;;2.80;100.00
32492;BME280;20605;49.742;18.802;2022-12-07T04:52:12;97259.14;;;2.78;100.00
32492;BME280;20605;49.742;18.802;2022-12-07T04:54:39;97262.19;;;2.73;100.00
32492;BME280;20605;49.742;18.802;2022-12-07T04:57:06;97258.78;;;2.71;100.00
32492;BME280;20605;49.742;18.802;2022-12-07T04:59:32;97259.23;;;2.69;100.00
32492;BME280;20605;49.742;18.802;2022-12-07T05:01:59;97263.10;;;2.68;100.00
32492;BME280;20605;49.742;18.802;2022-12-07T05:04:26;97257.53;;;2.68;100.00
32492;BME280;20605;49.742;18.802;2022-12-07T05:06:52;97258.84;;;2.65;100.00
32492;BME280;20605;49.742;18.802;2022-12-07T05:09:19;97260.98;;;2.64;100.00
32492;BME280;20605;49.742;18.802;2022-12-07T05:11:46;97257.20;;;2.59;100.00
32492;BME280;20605;49.742;18.802;2022-12-07T05:14:15;97257.16;;;2.61;100.00
32492;BME280;20605;49.742;18.802;2022-12-07T05:16:45;97262.73;;;2.60;100.00
32492;BME280;20605;49.742;18.802;2022-12-07T05:19:13;97256.31;;;2.60;100.00
32492;BME280;20605;49.742;18.802;2022-12-07T05:21:40;97261.09;;;2.56;100.00
32492;BME280;20605;49.742;18.802;2022-12-07T05:24:08;97256.80;;;2.57;100.00
32492;BME280;20605;49.742;18.802;2022-12-07T05:26:36;97258.52;;;2.56;100.00
32492;BME280;20605;49.742;18.802;2022-12-07T05:29:03;97255.50;;;2.58;100.00
32492;BME280;20605;49.742;18.802;2022-12-07T05:31:30;97256.36;;;2.59;100.00
32492;BME280;20605;49.742;18.802;2022-12-07T05:33:57;97250.80;;;2.58;100.00
32492;BME280;20605;49.742;18.802;2022-12-07T05:36:24;97258.09;;;2.57;100.00
32492;BME280;20605;49.742;18.802;2022-12-07T05:38:51;97263.66;;;2.56;100.00
32492;BME280;20605;49.742;18.802;2022-12-07T05:41:19;97264.09;;;2.56;100.00
32492;BME280;20605;49.742;18.802;2022-12-07T05:44:05;97261.06;;;2.59;100.00
32492;BME280;20605;49.742;18.802;2022-12-07T05:46:32;97263.16;;;2.61;100.00
32492;BME280;20605;49.742;18.802;2022-12-07T05:48:59;97260.57;;;2.63;100.00
32492;BME280;20605;49.742;18.802;2022-12-07T05:51:27;97260.14;;;2.63;100.00
32492;BME280;20605;49.742;18.802;2022-12-07T05:53:53;97262.72;;;2.62;100.00
32492;BME280;20605;49.742;18.802;2022-12-07T05:56:20;97259.73;;;2.61;100.00
32492;BME280;20605;49.742;18.802;2022-12-07T05:58:47;97257.59;;;2.60;100.00
32492;BME280;20605;49.742;18.802;2022-12-07T06:01:32;97260.66;;;2.57;100.00
32492;BME280;20605;49.742;18.802;2022-12-07T06:03:59;97265.37;;;2.56;100.00
32492;BME280;20605;49.742;18.802;2022-12-07T06:06:26;97262.41;;;2.52;100.00
32492;BME280;20605;49.742;18.802;2022-12-07T06:08:52;97268.86;;;2.50;100.00
32492;BME280;20605;49.742;18.802;2022-12-07T06:11:19;97266.28;;;2.50;100.00
32492;BME280;20605;49.742;18.802;2022-12-07T06:14:05;97268.42;;;2.51;100.00
32492;BME280;20605;49.742;18.802;2022-12-07T06:16:31;97269.68;;;2.54;100.00
32492;BME280;20605;49.742;18.802;2022-12-07T06:18:58;97263.66;;;2.56;100.00
32492;BME280;20605;49.742;18.802;2022-12-07T06:21:25;97273.93;;;2.58;100.00
32492;BME280;20605;49.742;18.802;2022-12-07T06:23:52;97270.51;;;2.57;100.00
32492;BME280;20605;49.742;18.802;2022-12-07T06:26:19;97270.97;;;2.54;100.00
32492;BME280;20605;49.742;18.802;2022-12-07T06:28:45;97270.13;;;2.52;100.00
32492;BME280;20605;49.742;18.802;2022-12-07T06:31:12;97264.98;;;2.52;100.00
32492;BME280;20605;49.742;18.802;2022-12-07T06:33:38;97273.97;;;2.53;100.00
32492;BME280;20605;49.742;18.802;2022-12-07T06:36:05;97277.81;;;2.55;100.00
32492;BME280;20605;49.742;18.802;2022-12-07T06:38:32;97276.09;;;2.55;100.00
32492;BME280;20605;49.742;18.802;2022-12-07T06:40:59;97276.50;;;2.58;100.00
32492;BME280;20605;49.742;18.802;2022-12-07T06:43:27;97283.30;;;2.60;100.00
32492;BME280;20605;49.742;18.802;2022-12-07T06:45:53;97281.63;;;2.59;100.00
32492;BME280;20605;49.742;18.802;2022-12-07T06:48:20;97280.34;;;2.59;100.00
32492;BME280;20605;49.742;18.802;2022-12-07T06:50:47;97286.80;;;2.56;100.00
32492;BME280;20605;49.742;18.802;2022-12-07T06:53:14;97287.20;;;2.59;100.00
32492;BME280;20605;49.742;18.802;2022-12-07T06:55:41;97295.34;;;2.60;100.00
32492;BME280;20605;49.742;18.802;2022-12-07T06:58:07;97293.63;;;2.59;100.00
32492;BME280;20605;49.742;18.802;2022-12-07T07:00:34;97301.34;;;2.59;100.00
32492;BME280;20605;49.742;18.802;2022-12-07T07:03:01;97300.87;;;2.61;100.00
32492;BME280;20605;49.742;18.802;2022-12-07T07:05:28;97302.57;;;2.62;100.00
32492;BME280;20605;49.742;18.802;2022-12-07T07:07:55;97309.92;;;2.58;100.00
32492;BME280;20605;49.742;18.802;2022-12-07T07:10:21;97308.66;;;2.55;100.00
32492;BME280;20605;49.742;18.802;2022-12-07T07:12:48;97312.95;;;2.54;100.00
32492;BME280;20605;49.742;18.802;2022-12-07T07:15:15;97310.78;;;2.58;100.00
32492;BME280;20605;49.742;18.802;2022-12-07T07:17:43;97313.29;;;2.61;100.00
32492;BME280;20605;49.742;18.802;2022-12-07T07:20:10;97320.52;;;2.68;100.00
32492;BME280;20605;49.742;18.802;2022-12-07T07:22:38;97321.81;;;2.67;100.00
32492;BME280;20605;49.742;18.802;2022-12-07T07:25:04;97318.36;;;2.71;100.00
32492;BME280;20605;49.742;18.802;2022-12-07T07:27:31;97317.53;;;2.67;100.00
32492;BME280;20605;49.742;18.802;2022-12-07T07:29:58;97320.58;;;2.60;100.00
32492;BME280;20605;49.742;18.802;2022-12-07T07:32:25;97318.13;;;2.50;100.00
32492;BME280;20605;49.742;18.802;2022-12-07T07:34:51;97319.05;;;2.41;100.00
32492;BME280;20605;49.742;18.802;2022-12-07T07:37:18;97319.07;;;2.38;100.00
32492;BME280;20605;49.742;18.802;2022-12-07T07:39:45;97320.34;;;2.40;100.00
32492;BME280;20605;49.742;18.802;2022-12-07T07:42:11;97315.61;;;2.42;100.00
32492;BME280;20605;49.742;18.802;2022-12-07T07:44:39;97324.59;;;2.44;100.00
32492;BME280;20605;49.742;18.802;2022-12-07T07:47:05;97325.48;;;2.40;100.00
32492;BME280;20605;49.742;18.802;2022-12-07T07:49:32;97319.91;;;2.40;100.00
32492;BME280;20605;49.742;18.802;2022-12-07T07:51:59;97320.74;;;2.44;100.00
32492;BME280;20605;49.742;18.802;2022-12-07T07:54:25;97318.13;;;2.50;100.00
32492;BME280;20605;49.742;18.802;2022-12-07T07:56:55;97322.80;;;2.55;100.00
32492;BME280;20605;49.742;18.802;2022-12-07T07:59:22;97324.91;;;2.60;100.00
32492;BME280;20605;49.742;18.802;2022-12-07T08:01:49;97331.25;;;2.66;100.00
32492;BME280;20605;49.742;18.802;2022-12-07T08:04:15;97328.66;;;2.69;100.00
32492;BME280;20605;49.742;18.802;2022-12-07T08:06:42;97333.81;;;2.68;100.00
32492;BME280;20605;49.742;18.802;2022-12-07T22:22:55;97336.81;;;0.97;100.00
32492;BME280;20605;49.742;18.802;2022-12-07T22:25:22;97334.25;;;0.96;100.00
32492;BME280;20605;49.742;18.802;2022-12-07T22:27:49;97334.67;;;1.00;100.00
32492;BME280;20605;49.742;18.802;2022-12-07T22:30:15;97337.23;;;1.05;100.00
32492;BME280;20605;49.742;18.802;2022-12-07T22:32:42;97333.80;;;1.13;100.00
32492;BME280;20605;49.742;18.802;2022-12-07T22:35:09;97336.34;;;1.19;100.00
32492;BME280;20605;49.742;18.802;2022-12-07T22:37:35;97338.05;;;1.26;100.00
32492;BME280;20605;49.742;18.802;2022-12-07T22:40:03;97333.28;;;1.35;100.00
32492;BME280;20605;49.742;18.802;2022-12-07T22:42:30;97336.27;;;1.39;100.00
32492;BME280;20605;49.742;18.802;2022-12-07T22:44:57;97333.25;;;1.46;100.00
32492;BME280;20605;49.742;18.802;2022-12-07T22:47:25;97332.80;;;1.51;100.00
32492;BME280;20605;49.742;18.802;2022-12-07T22:49:52;97326.79;;;1.58;100.00
32492;BME280;20605;49.742;18.802;2022-12-07T22:52:20;97334.45;;;1.67;100.00
32492;BME280;20605;49.742;18.802;2022-12-07T22:54:47;97326.73;;;1.73;100.00
32492;BME280;20605;49.742;18.802;2022-12-07T22:57:13;97331.39;;;1.81;100.00
32492;BME280;20605;49.742;18.802;2022-12-07T22:59:41;97332.66;;;1.86;100.00
32492;BME280;20605;49.742;18.802;2022-12-07T23:02:08;97325.80;;;1.89;100.00
32492;BME280;20605;49.742;18.802;2022-12-07T23:04:34;97327.50;;;1.90;100.00
32492;BME280;20605;49.742;18.802;2022-12-07T23:07:01;97328.77;;;1.93;100.00
32492;BME280;20605;49.742;18.802;2022-12-07T23:09:28;97327.05;;;1.94;100.00
32492;BME280;20605;49.742;18.802;2022-12-07T23:11:54;97323.64;;;1.90;100.00
32492;BME280;20605;49.742;18.802;2022-12-07T23:14:39;97326.25;;;1.84;100.00
32492;BME280;20605;49.742;18.802;2022-12-07T23:17:07;97326.25;;;1.83;100.00
32492;BME280;20605;49.742;18.802;2022-12-07T23:19:34;97322.81;;;1.85;100.00
32492;BME280;20605;49.742;18.802;2022-12-07T23:22:01;97327.52;;;1.86;100.00
32492;BME280;20605;49.742;18.802;2022-12-07T23:24:27;97318.52;;;1.89;100.00
32492;BME280;20605;49.742;18.802;2022-12-07T23:26:54;97325.34;;;1.93;100.00
32492;BME280;20605;49.742;18.802;2022-12-07T23:29:21;97321.05;;;1.95;100.00
32492;BME280;20605;49.742;18.802;2022-12-07T23:31:48;97324.47;;;1.97;100.00
32492;BME280;20605;49.742;18.802;2022-12-07T23:34:15;97318.47;;;1.98;100.00
32492;BME280;20605;49.742;18.802;2022-12-07T23:36:42;97322.73;;;2.02;100.00
32492;BME280;20605;49.742;18.802;2022-12-07T23:39:08;97316.72;;;2.05;100.00
32492;BME280;20605;49.742;18.802;2022-12-07T23:41:35;97316.71;;;2.06;100.00
32492;BME280;20605;49.742;18.802;2022-12-07T23:44:02;97318.45;;;2.03;100.00
32492;BME280;20605;49.742;18.802;2022-12-07T23:46:30;97309.46;;;2.01;100.00
32492;BME280;20605;49.742;18.802;2022-12-07T23:48:59;97311.20;;;1.98;100.00
32492;BME280;20605;49.742;18.802;2022-12-07T23:51:27;97308.64;;;1.94;100.00
32492;BME280;20605;49.742;18.802;2022-12-07T23:53:54;97306.52;;;1.92;100.00
32492;BME280;20605;49.742;18.802;2022-12-07T23:56:23;97314.66;;;1.89;100.00
32492;BME280;20605;49.742;18.802;2022-12-07T23:58:52;97313.39;;;1.87;100.00
